New Castle Airport
KILG : now visible

Airfield :











YOU CAN JOIN US ON...

 
LOGIN :

Register | Disclaimer

   EN    FR    IT 

 









Legend :    VFR   Marginal VFR   IFR   Intensive IFR   Very Intensive IFR
Visi :
Ceiling :
>= 8 km
>= 3000ft
5 to 8 km
1000 to 3000 ft
1500m to 5 km
500 to 1000 ft
800 to 1500m
200 to 500 ft
< 800m
< 200 ft
Symbols :   Thunderstorms  Fog  Heavy snow  Heavy precipitations  Wind > 20 kt






- Airport Elevation : 80 ft
- IATA code : ILG


KILG - New Castle

CURRENT METAR :
  • 241751Z 12008KT 10SM FEW037 OVC050 19/10 A3027 RMK AO2 SLP251 T01890100 10194 20167 58001

EXPIRED METARs :
  • 241651Z 12009KT 10SM OVC045 18/10 A3028 RMK AO2 SLP255 T01830100
  • 241551Z 14009KT 10SM OVC037 18/10 A3029 RMK AO2 SLP256 T01780100

TAF KILG
Valid from the 24 at 18:00 until the 25 at 18:00 UTC


241720Z 2418/2518 12008KT P6SM BKN050
FM250000 08006KT P6SM SCT070
FM251200 07005KT P6SM SCT080
KZDC FIR / North America



MET'MAP, your aeronautical weather chart ! - Copyright ORBIFLY December 2007 - Disclaimer

ORBIFLY MET'MAP TEAM :

Programming & Development : Alexandra Zaïnal
Original concept : Baudouin d'Aumeries
Technical & hardware support : Manuel Goepfert
Assistance : Marc-Olivier Méhu

Contact : metmap@orbifly.com




SOURCES & CREDITS :

   NOAA       Earth
Advisory